Terminal Aerodrome Forecast
Issued by NWS Springfield, MO

Home | Current Version | Previous Version | Text Only | Print | Product List | Glossary On
Versions: 1 2 3 4 5 6 7 8 9 10 11 12 13 14 15 16 17 18 19 20 21 22 23 24 25 26 27
000
FTUS43 KSGF 220730 AAB
TAFSGF
TAF AMD
KSGF 220730Z 2208/2306 04006KT P6SM BKN015 OVC050
      TEMPO 2211/2215 4SM -SHRA BR OVC060
     FM221500 03013KT 2SM -RA BR OVC007
     FM221800 36016G24KT 4SM -RA BR OVC015
     FM222300 34020G28KT P6SM OVC050=

USA.gov is the U.S. government's official web portal to all federal, state and local government web resources and services.